Time;durP1;ratioP1;P1;durP2;ratioP2;P2;SDS_P1;SDS_P2;PMS_P1;PMS_P2;Temp;Humidity;BMP_temperature;BMP_pressure;BME280_temperature;BME280_humidity;BME280_pressure;Samples;Min_cycle;Max_cycle;Signal;HPM_P1;HPM_P2
2022/06/23 00:00:59;;;;;;;1999.90;999.90;;;18.30;58.40;;;;;;5053875;28;20652;-62
2022/06/23 00:03:31;;;;;;;1999.90;999.90;;;18.20;99.90;;;;;;5053833;28;20653;-61
2022/06/23 00:06:02;;;;;;;1999.90;999.90;;;18.20;99.90;;;;;;5053716;28;20239;-62
2022/06/23 00:08:29;;;;;;;1999.90;999.90;;;18.20;99.90;;;;;;5054100;28;20211;-62
2022/06/23 00:10:59;;;;;;;1999.90;999.90;;;18.10;47.10;;;;;;5053946;28;20203;-62
2022/06/23 00:13:34;;;;;;;1999.90;999.90;;;18.10;1.00;;;;;;5053734;28;20622;-62
2022/06/23 00:16:02;;;;;;;1999.90;999.90;;;18.10;1.00;;;;;;5053903;28;20302;-62
2022/06/23 00:18:38;;;;;;;1999.90;999.90;;;18.10;1.00;;;;;;5053895;28;20208;-62
2022/06/23 00:21:15;;;;;;;1999.90;999.90;;;18.10;1.00;;;;;;5053776;28;20281;-61
2022/06/23 00:23:46;;;;;;;1999.90;999.90;;;18.10;1.00;;;;;;5053716;28;20214;-62
2022/06/23 00:26:19;;;;;;;1999.90;999.90;;;18.00;6.50;;;;;;5053729;28;20204;-62
2022/06/23 00:28:50;;;;;;;1999.90;999.90;;;17.90;99.10;;;;;;5053363;28;20191;-62
2022/06/23 00:31:26;;;;;;;1999.90;999.90;;;18.00;99.90;;;;;;5053661;28;20192;-62
2022/06/23 00:33:54;;;;;;;1999.90;999.90;;;18.00;92.10;;;;;;5053569;28;20184;-61
2022/06/23 00:36:29;;;;;;;1999.90;999.90;;;17.90;99.90;;;;;;5053525;28;20620;-62
2022/06/23 00:38:57;;;;;;;1999.90;999.90;;;17.90;99.90;;;;;;5053513;28;20183;-62
2022/06/23 00:41:30;;;;;;;1999.90;999.90;;;17.80;99.90;;;;;;5053217;28;20203;-62
2022/06/23 00:44:03;;;;;;;1999.90;999.90;;;17.70;99.90;;;;;;5053516;28;20191;-61
2022/06/23 00:46:33;;;;;;;1999.90;999.90;;;17.70;99.90;;;;;;5053383;28;20210;-62
2022/06/23 00:49:02;;;;;;;1999.90;999.90;;;17.70;99.90;;;;;;5053404;28;20180;-62
2022/06/23 00:51:36;;;;;;;1999.90;999.90;;;17.60;99.90;;;;;;5053189;28;20234;-62
2022/06/23 00:54:07;;;;;;;1999.90;999.90;;;17.60;99.90;;;;;;5052886;28;20189;-62
2022/06/23 00:56:48;;;;;;;1999.90;999.90;;;17.50;99.90;;;;;;5052920;28;20184;-62
2022/06/23 00:59:19;;;;;;;1999.90;999.90;;;17.50;1.00;;;;;;5053146;28;20175;-61
2022/06/23 01:01:57;;;;;;;1999.90;999.90;;;17.40;1.00;;;;;;5052816;28;20198;-62
2022/06/23 01:04:30;;;;;;;1999.90;999.90;;;17.40;1.00;;;;;;5052946;28;20194;-62
2022/06/23 01:07:01;;;;;;;1999.90;999.90;;;17.40;1.00;;;;;;5052643;28;20641;-62
2022/06/23 01:09:34;;;;;;;1999.90;999.90;;;17.30;1.00;;;;;;5052998;28;20205;-62
2022/06/23 01:12:23;;;;;;;1999.90;999.90;;;17.30;1.00;;;;;;5053055;28;20218;-62
2022/06/23 01:14:54;;;;;;;1999.90;999.90;;;17.20;37.70;;;;;;5053031;28;20196;-62
2022/06/23 01:17:26;;;;;;;1999.90;999.90;;;17.20;99.90;;;;;;5053012;28;20203;-62
2022/06/23 01:20:19;;;;;;;1999.90;999.90;;;17.20;99.90;;;;;;5052865;28;20194;-61
2022/06/23 01:23:20;;;;;;;1999.90;999.90;;;17.20;1.00;;;;;;5052289;28;20229;-61
2022/06/23 01:26:12;;;;;;;1999.90;999.90;;;17.20;1.00;;;;;;5010531;28;20305;-62
2022/06/23 01:28:42;;;;;;;1999.90;999.90;;;17.20;1.00;;;;;;5010677;28;20221;-61
2022/06/23 01:31:15;;;;;;;1999.90;999.90;;;17.10;1.00;;;;;;5010568;28;20209;-62
2022/06/23 01:33:47;;;;;;;1999.90;999.90;;;17.10;99.90;;;;;;5010428;28;20187;-61
2022/06/23 01:36:19;;;;;;;1999.90;999.90;;;17.10;99.90;;;;;;5010533;28;20218;-62
2022/06/23 01:38:53;;;;;;;1999.90;999.90;;;17.00;1.00;;;;;;5010504;28;20625;-62
2022/06/23 01:41:26;;;;;;;1999.90;999.90;;;17.10;99.90;;;;;;5010467;28;20218;-62
2022/06/23 01:43:59;;;;;;;1999.90;999.90;;;17.10;1.00;;;;;;5010454;28;20195;-62
2022/06/23 01:46:34;;;;;;;1999.90;999.90;;;17.20;1.00;;;;;;5010246;28;20270;-62
2022/06/23 01:49:05;;;;;;;1999.90;999.90;;;17.30;99.90;;;;;;5010317;28;20750;-62
2022/06/23 01:51:40;;;;;;;1999.90;999.90;;;17.40;93.90;;;;;;5010130;28;20202;-62
2022/06/23 01:54:13;;;;;;;1999.90;999.90;;;17.50;14.30;;;;;;5010110;28;20196;-62
2022/06/23 01:56:54;;;;;;;1999.90;999.90;;;17.50;99.90;;;;;;5010016;28;20189;-62
2022/06/23 01:59:52;;;;;;;1999.90;999.90;;;17.50;99.90;;;;;;5009974;28;20188;-61
2022/06/23 02:02:27;;;;;;;1999.90;999.90;;;17.50;19.00;;;;;;5028049;28;20583;-62
2022/06/23 02:05:00;;;;;;;1999.90;999.90;;;17.50;1.00;;;;;;5051586;28;20179;-61
2022/06/23 02:07:33;;;;;;;1999.90;999.90;;;17.40;1.00;;;;;;5052238;28;20198;-62
2022/06/23 02:10:06;;;;;;;1999.90;999.90;;;17.40;1.00;;;;;;5052172;28;20179;-62
2022/06/23 02:12:42;;;;;;;1999.90;999.90;;;17.40;1.00;;;;;;5051704;28;20645;-61
2022/06/23 02:15:16;;;;;;;1999.90;999.90;;;17.40;1.00;;;;;;5052109;28;20180;-62
2022/06/23 02:17:49;;;;;;;1999.90;999.90;;;17.40;1.00;;;;;;5052062;28;20186;-62
2022/06/23 02:20:29;;;;;;;1999.90;999.90;;;17.50;1.00;;;;;;5052047;28;20194;-62
2022/06/23 02:23:10;;;;;;;1999.90;999.90;;;17.50;1.00;;;;;;5051801;28;20203;-61
2022/06/23 02:25:42;;;;;;;1999.90;999.90;;;17.60;99.90;;;;;;5051889;28;20203;-62
2022/06/23 02:28:23;;;;;;;1999.90;999.90;;;17.60;99.90;;;;;;5051697;28;20633;-62
2022/06/23 02:30:55;;;;;;;1999.90;999.90;;;17.60;1.00;;;;;;5051927;28;20233;-62
2022/06/23 02:33:39;;;;;;;1999.90;999.90;;;17.60;1.00;;;;;;5051777;28;20184;-61
2022/06/23 02:36:18;;;;;;;1999.90;999.90;;;17.60;1.00;;;;;;5055115;28;20218;-61
2022/06/23 02:38:48;;;;;;;1999.90;999.90;;;17.60;1.00;;;;;;5055785;28;20192;-62
2022/06/23 02:41:19;;;;;;;1999.90;999.90;;;17.60;1.00;;;;;;5055780;28;20180;-62
2022/06/23 02:43:50;;;;;;;1999.90;999.90;;;17.60;1.00;;;;;;5055711;28;20195;-62
2022/06/23 02:46:46;;;;;;;1999.90;999.90;;;17.50;1.00;;;;;;5055302;28;20679;-62
2022/06/23 02:49:47;;;;;;;1999.90;999.90;;;17.50;1.00;;;;;;5055311;28;20529;-62
2022/06/23 02:52:42;;;;;;;1999.90;999.90;;;17.50;99.90;;;;;;5055415;28;20214;-62
2022/06/23 02:55:36;;;;;;;1999.90;999.90;;;17.40;1.00;;;;;;5055551;28;20887;-62
2022/06/23 02:58:08;;;;;;;1999.90;999.90;;;17.40;99.90;;;;;;5055460;28;20180;-62
2022/06/23 03:00:44;;;;;;;1999.90;999.90;;;17.30;45.50;;;;;;5055368;28;20192;-61
2022/06/23 03:03:20;;;;;;;1999.90;999.90;;;17.20;99.90;;;;;;5054947;28;20739;-61
2022/06/23 03:05:51;;;;;;;1999.90;999.90;;;17.20;1.00;;;;;;5055005;28;20238;-61
2022/06/23 03:08:26;;;;;;;1999.90;999.90;;;17.10;1.00;;;;;;5055325;28;20277;-61
2022/06/23 03:10:58;;;;;;;1999.90;999.90;;;17.20;99.90;;;;;;5055287;28;20184;-62
2022/06/23 03:13:33;;;;;;;1999.90;999.90;;;17.10;99.90;;;;;;5055387;28;20176;-61
2022/06/23 03:16:08;;;;;;;1999.90;999.90;;;17.00;1.00;;;;;;5054964;28;20543;-62
2022/06/23 03:18:42;;;;;;;1999.90;999.90;;;17.00;1.00;;;;;;5055125;28;20237;-61
2022/06/23 03:21:18;;;;;;;1999.90;999.90;;;16.90;88.60;;;;;;5055116;28;20274;-61
2022/06/23 03:23:49;;;;;;;1999.90;999.90;;;16.90;84.60;;;;;;5055071;28;20178;-62
2022/06/23 03:26:22;;;;;;;1999.90;999.90;;;17.00;1.00;;;;;;5054776;28;20673;-62
2022/06/23 03:28:55;;;;;;;1999.90;999.90;;;16.80;1.00;;;;;;5055222;28;20198;-62
2022/06/23 03:31:28;;;;;;;1999.90;999.90;;;16.70;99.90;;;;;;5055110;28;20198;-61
2022/06/23 03:34:02;;;;;;;1999.90;999.90;;;16.70;1.00;;;;;;5054947;28;20201;-61
2022/06/23 03:36:36;;;;;;;1999.90;999.90;;;16.70;99.90;;;;;;5054936;28;20183;-61
2022/06/23 03:42:08;;;;;;;1999.90;999.90;;;16.90;1.00;;;;;;5054865;28;20536;-62
2022/06/23 03:44:44;;;;;;;1999.90;999.90;;;17.00;99.90;;;;;;5054675;28;20194;-62
2022/06/23 03:47:19;;;;;;;1999.90;999.90;;;17.00;1.00;;;;;;5053845;28;20213;-61
2022/06/23 03:49:51;;;;;;;1999.90;999.90;;;17.10;1.00;;;;;;5054594;28;20584;-62
2022/06/23 03:52:28;;;;;;;1999.90;999.90;;;17.10;74.50;;;;;;5054396;28;20186;-62
2022/06/23 03:55:00;;;;;;;1999.90;999.90;;;17.00;1.00;;;;;;5054591;28;20232;-62
2022/06/23 03:57:31;;;;;;;1999.90;999.90;;;17.10;1.00;;;;;;5054484;28;20198;-62
2022/06/23 04:00:18;;;;;;;1999.90;999.90;;;17.10;1.00;;;;;;5054499;28;20265;-61
2022/06/23 04:02:49;;;;;;;1999.90;999.90;;;17.00;48.50;;;;;;5054135;28;20198;-61
2022/06/23 04:05:24;;;;;;;1999.90;999.90;;;17.00;11.80;;;;;;5053940;28;20235;-61
2022/06/23 04:07:53;;;;;;;1999.90;999.90;;;17.10;2.20;;;;;;5054020;28;20686;-62
2022/06/23 04:10:27;;;;;;;1999.90;999.90;;;17.20;1.00;;;;;;5054195;28;20209;-62
2022/06/23 04:12:59;;;;;;;1999.90;999.90;;;17.20;1.00;;;;;;5054122;28;20188;-62
2022/06/23 04:15:31;;;;;;;1999.90;999.90;;;17.30;1.00;;;;;;5054042;28;20238;-62
2022/06/23 04:18:02;;;;;;;1999.90;999.90;;;17.40;1.00;;;;;;5053683;28;20634;-62
2022/06/23 04:20:36;;;;;;;1999.90;999.90;;;17.40;1.00;;;;;;5053622;28;20617;-62
2022/06/23 04:23:06;;;;;;;1999.90;999.90;;;17.50;99.90;;;;;;5053886;28;20268;-61
2022/06/23 04:25:40;;;;;;;1999.90;999.90;;;17.60;1.00;;;;;;5053680;28;20191;-62
2022/06/23 04:28:17;;;;;;;1999.90;999.90;;;17.60;1.00;;;;;;5053468;28;20624;-62
2022/06/23 04:30:46;;;;;;;1999.90;999.90;;;17.60;1.00;;;;;;5053502;28;20290;-62
2022/06/23 04:33:18;;;;;;;1999.90;999.90;;;17.60;1.00;;;;;;5052336;28;20208;-61
2022/06/23 04:35:50;;;;;;;1999.90;999.90;;;17.70;1.00;;;;;;5053621;28;20191;-61
2022/06/23 04:38:26;;;;;;;1999.90;999.90;;;17.90;1.00;;;;;;5053536;28;20195;-61
2022/06/23 04:41:01;;;;;;;1999.90;999.90;;;18.00;99.90;;;;;;5053587;28;20190;-62
2022/06/23 04:43:36;;;;;;;1999.90;999.90;;;18.00;1.00;;;;;;5052902;28;20191;-61
2022/06/23 04:46:10;;;;;;;1999.90;999.90;;;18.10;12.60;;;;;;5053385;28;20301;-61
2022/06/23 04:48:46;;;;;;;1999.90;999.90;;;18.20;99.90;;;;;;5053265;28;20237;-62
2022/06/23 04:51:25;;;;;;;1999.90;999.90;;;18.30;99.90;;;;;;5052845;28;20184;-62
2022/06/23 04:54:01;;;;;;;1999.90;999.90;;;18.40;99.90;;;;;;5052906;28;20187;-62
2022/06/23 04:56:36;;;;;;;1999.90;999.90;;;18.50;1.00;;;;;;5052760;28;20180;-62
2022/06/23 04:59:16;;;;;;;1999.90;999.90;;;18.60;99.90;;;;;;5052641;28;20203;-62
2022/06/23 05:01:48;;;;;;;1999.90;999.90;;;18.70;99.90;;;;;;5052561;28;20264;-62
2022/06/23 05:04:18;;;;;;;1999.90;999.90;;;19.00;29.00;;;;;;5052661;28;20622;-62
2022/06/23 05:06:49;;;;;;;1999.90;999.90;;;19.20;1.00;;;;;;5052433;28;20701;-62
2022/06/23 05:09:23;;;;;;;1999.90;999.90;;;19.40;1.00;;;;;;5052925;28;20544;-62
2022/06/23 05:11:53;;;;;;;1999.90;999.90;;;19.70;99.90;;;;;;5052478;28;21057;-63
2022/06/23 05:14:36;;;;;;;1999.90;999.90;;;20.20;99.90;;;;;;5052941;28;20192;-60
2022/06/23 05:17:11;;;;;;;1999.90;999.90;;;21.30;71.90;;;;;;5052802;28;20191;-61
2022/06/23 05:19:40;;;;;;;1999.90;999.90;;;21.90;99.90;;;;;;5052684;28;20187;-61
2022/06/23 05:22:19;;;;;;;1999.90;999.90;;;22.20;99.90;;;;;;5052274;28;20299;-61
2022/06/23 05:24:49;;;;;;;1999.90;999.90;;;22.70;54.90;;;;;;5052651;28;20229;-61
2022/06/23 05:27:22;;;;;;;1999.90;999.90;;;23.30;1.00;;;;;;5052282;28;20238;-61
2022/06/23 05:29:54;;;;;;;1999.90;999.90;;;23.30;1.00;;;;;;5052338;28;20198;-61
2022/06/23 05:32:24;;;;;;;1999.90;999.90;;;23.60;1.00;;;;;;5052250;28;20196;-61
2022/06/23 05:34:57;;;;;;;1999.90;999.90;;;23.80;1.00;;;;;;5052443;28;20191;-62
2022/06/23 05:37:30;;;;;;;1999.90;999.90;;;24.20;99.90;;;;;;5052558;28;20226;-62
2022/06/23 05:40:16;;;;;;;1999.90;999.90;;;24.20;99.90;;;;;;5052402;28;20184;-62
2022/06/23 05:42:48;;;;;;;1999.90;999.90;;;24.20;99.90;;;;;;5051230;28;20180;-62
2022/06/23 05:45:20;;;;;;;1999.90;999.90;;;24.70;99.90;;;;;;5052415;28;20283;-62
2022/06/23 05:47:47;;;;;;;1999.90;999.90;;;25.00;99.90;;;;;;5052326;28;20298;-62
2022/06/23 05:50:20;;;;;;;1999.90;999.90;;;25.30;99.90;;;;;;5051869;28;20661;-62
2022/06/23 05:52:54;;;;;;;1999.90;999.90;;;25.40;99.90;;;;;;5051822;28;20183;-63
2022/06/23 05:55:31;;;;;;;1999.90;999.90;;;24.70;58.00;;;;;;5052309;28;20246;-63
2022/06/23 05:58:04;;;;;;;1999.90;999.90;;;23.70;99.90;;;;;;5052273;28;20564;-62
2022/06/23 06:00:37;;;;;;;1999.90;999.90;;;23.50;99.90;;;;;;5051770;28;20202;-62
2022/06/23 06:03:11;;;;;;;1999.90;999.90;;;24.20;97.60;;;;;;5052025;28;20180;-62
2022/06/23 06:05:42;;;;;;;1999.90;999.90;;;24.70;1.00;;;;;;5051711;28;20700;-64
2022/06/23 06:08:15;;;;;;;1999.90;999.90;;;25.50;1.00;;;;;;5052375;28;20217;-63
2022/06/23 06:10:42;;;;;;;1999.90;999.90;;;25.80;1.00;;;;;;5058418;28;20190;-63
2022/06/23 06:13:18;;;;;;;1999.90;999.90;;;25.90;1.00;;;;;;5058737;28;20199;-63
2022/06/23 06:15:49;;;;;;;1999.90;999.90;;;26.40;1.00;;;;;;5058508;28;20655;-63
2022/06/23 06:18:22;;;;;;;1999.90;999.90;;;26.30;1.00;;;;;;5058690;28;20180;-63
2022/06/23 06:20:49;;;;;;;1999.90;999.90;;;26.60;1.00;;;;;;5058604;28;20179;-63
2022/06/23 06:23:23;;;;;;;1999.90;999.90;;;26.50;1.00;;;;;;5058648;28;20210;-64
2022/06/23 06:25:51;;;;;;;1999.90;999.90;;;26.70;1.00;;;;;;5058395;28;20192;-64
2022/06/23 06:28:21;;;;;;;1999.90;999.90;;;26.70;1.00;;;;;;5058516;28;20229;-64
2022/06/23 06:30:57;;;;;;;1999.90;999.90;;;27.20;1.00;;;;;;5058143;28;20195;-64
2022/06/23 06:33:43;;;;;;;1999.90;999.90;;;27.00;1.00;;;;;;5058051;28;20198;-62
2022/06/23 06:36:26;;;;;;;1999.90;999.90;;;27.30;1.00;;;;;;5058562;28;20190;-61
2022/06/23 06:39:01;;;;;;;1999.90;999.90;;;27.00;1.00;;;;;;5058563;28;20283;-64
2022/06/23 06:41:28;;;;;;;1999.90;999.90;;;27.00;1.00;;;;;;5058158;28;20187;-64
2022/06/23 06:43:57;;;;;;;1999.90;999.90;;;26.90;1.00;;;;;;5058473;28;20294;-65
2022/06/23 06:46:23;;;;;;;1999.90;999.90;;;26.90;1.00;;;;;;5058468;28;20195;-63
2022/06/23 06:48:50;;;;;;;1999.90;999.90;;;27.20;1.00;;;;;;5058064;28;20199;-65
2022/06/23 06:51:21;;;;;;;1999.90;999.90;;;27.40;1.00;;;;;;5057962;28;20597;-66
2022/06/23 06:53:51;;;;;;;1999.90;999.90;;;27.70;1.00;;;;;;5058097;28;20626;-64
2022/06/23 06:56:24;;;;;;;1999.90;999.90;;;28.10;1.00;;;;;;5058339;28;20221;-64
2022/06/23 06:58:58;;;;;;;1999.90;999.90;;;28.60;1.00;;;;;;5058384;28;20183;-65
2022/06/23 07:01:27;;;;;;;1999.90;999.90;;;28.90;99.90;;;;;;5058071;28;20665;-65
2022/06/23 07:03:55;;;;;;;1999.90;999.90;;;28.90;99.90;;;;;;5058176;28;20195;-64
2022/06/23 07:06:31;;;;;;;1999.90;999.90;;;29.60;99.90;;;;;;5057834;28;20246;-66
2022/06/23 07:09:07;;;;;;;1999.90;999.90;;;29.30;99.90;;;;;;5058268;28;20187;-64
2022/06/23 07:11:45;;;;;;;1999.90;999.90;;;29.40;99.90;;;;;;5058299;28;20282;-61
2022/06/23 07:14:18;;;;;;;1999.90;999.90;;;29.40;99.90;;;;;;5058275;28;20194;-58
2022/06/23 07:16:49;;;;;;;1999.90;999.90;;;29.40;99.90;;;;;;5058186;28;20644;-60
2022/06/23 07:19:20;;;;;;;1999.90;999.90;;;29.20;99.90;;;;;;5058175;28;20195;-59
2022/06/23 07:21:52;;;;;;;1999.90;999.90;;;29.40;99.90;;;;;;5054059;28;20215;-61
2022/06/23 07:24:26;;;;;;;1999.90;999.90;;;29.30;99.90;;;;;;5055001;28;20210;-61
2022/06/23 07:27:01;;;;;;;1999.90;999.90;;;29.30;99.90;;;;;;5054522;28;20204;-62
2022/06/23 07:29:36;;;;;;;1999.90;999.90;;;29.70;99.90;;;;;;5054551;28;20188;-61
2022/06/23 07:32:19;;;;;;;1999.90;999.90;;;29.70;99.90;;;;;;5054851;28;20590;-60
2022/06/23 07:34:54;;;;;;;1999.90;999.90;;;30.00;99.90;;;;;;5054583;28;20212;-63
2022/06/23 07:37:27;;;;;;;1999.90;999.90;;;30.20;99.90;;;;;;5054353;28;20229;-62
2022/06/23 07:40:00;;;;;;;1999.90;999.90;;;30.10;99.90;;;;;;5054608;28;20203;-62
2022/06/23 07:42:43;;;;;;;1999.90;999.90;;;30.80;99.90;;;;;;5054554;28;20192;-62
2022/06/23 07:45:16;;;;;;;1999.90;999.90;;;30.60;99.90;;;;;;5053553;28;20233;-62
2022/06/23 07:47:43;;;;;;;1999.90;999.90;;;30.70;99.90;;;;;;5054247;28;20231;-62
2022/06/23 07:50:11;;;;;;;1999.90;999.90;;;30.40;99.90;;;;;;5061648;28;20194;-62
2022/06/23 07:52:38;;;;;;;1999.90;999.90;;;29.80;99.90;;;;;;5073719;28;20523;-63
2022/06/23 07:55:06;;;;;;;1999.90;999.90;;;29.50;99.90;;;;;;5073551;28;20555;-63
2022/06/23 07:57:35;;;;;;;1999.90;999.90;;;30.00;99.90;;;;;;5074013;28;20199;-64
2022/06/23 08:00:07;;;;;;;1999.90;999.90;;;30.50;99.90;;;;;;5068576;28;20226;-64
2022/06/23 08:02:41;;;;;;;1999.90;999.90;;;30.00;99.90;;;;;;5073805;28;20190;-63
2022/06/23 08:05:14;;;;;;;1999.90;999.90;;;30.50;99.90;;;;;;5071717;28;20226;-63
2022/06/23 08:07:41;;;;;;;1999.90;999.90;;;30.70;99.90;;;;;;5073577;28;20195;-63
2022/06/23 08:10:11;;;;;;;1999.90;999.90;;;30.40;99.90;;;;;;5073736;28;20191;-64
2022/06/23 08:12:56;;;;;;;1999.90;999.90;;;30.60;99.90;;;;;;5073638;28;20547;-62
2022/06/23 08:18:27;;;;;;;1999.90;999.90;;;30.10;99.90;;;;;;5053594;28;20183;-63
2022/06/23 08:21:02;;;;;;;1999.90;999.90;;;30.00;99.90;;;;;;5053715;28;20195;-63
2022/06/23 08:23:35;;;;;;;1999.90;999.90;;;29.90;99.90;;;;;;5053502;28;20183;-63
2022/06/23 08:26:05;;;;;;;1999.90;999.90;;;29.70;99.90;;;;;;5053696;28;20540;-63
2022/06/23 08:28:34;;;;;;;1999.90;999.90;;;30.20;99.90;;;;;;5053349;28;20227;-62
2022/06/23 08:31:02;;;;;;;1999.90;999.90;;;30.10;99.90;;;;;;5053630;28;20191;-63
2022/06/23 08:33:29;;;;;;;1999.90;999.90;;;30.20;99.90;;;;;;5052002;28;20714;-62
2022/06/23 08:35:58;;;;;;;1999.90;999.90;;;30.10;99.90;;;;;;5053516;28;20234;-63
2022/06/23 08:38:31;;;;;;;1999.90;999.90;;;30.40;99.90;;;;;;5053518;28;20196;-63
2022/06/23 08:41:18;;;;;;;1999.90;999.90;;;30.10;99.90;;;;;;5053542;28;20191;-63
2022/06/23 08:43:54;;;;;;;1999.90;999.90;;;30.20;99.90;;;;;;5053437;28;20183;-63
2022/06/23 08:46:29;;;;;;;1999.90;999.90;;;30.40;99.90;;;;;;5053263;28;20191;-62
2022/06/23 08:49:03;;;;;;;1999.90;999.90;;;30.40;99.90;;;;;;5052941;28;20221;-62
2022/06/23 08:51:41;;;;;;;1999.90;999.90;;;30.40;99.90;;;;;;5053129;28;20191;-63
2022/06/23 08:54:16;;;;;;;1999.90;999.90;;;30.20;99.90;;;;;;5052495;28;20199;-62
2022/06/23 08:56:49;;;;;;;1999.90;999.90;;;30.20;99.90;;;;;;5053137;28;20188;-62
2022/06/23 08:59:24;;;;;;;1999.90;999.90;;;30.60;99.90;;;;;;5053151;28;20590;-63
2022/06/23 09:02:01;;;;;;;1999.90;999.90;;;30.70;99.90;;;;;;5053077;28;20187;-63
2022/06/23 09:04:41;;;;;;;1999.90;999.90;;;30.20;99.90;;;;;;5052861;28;20183;-63
2022/06/23 09:07:17;;;;;;;1999.90;999.90;;;30.10;99.90;;;;;;5052820;28;20270;-63
2022/06/23 09:09:52;;;;;;;1999.90;999.90;;;30.50;99.90;;;;;;5052607;28;20230;-64
2022/06/23 09:12:26;;;;;;;1999.90;999.90;;;31.00;99.90;;;;;;5052896;28;20278;-63
2022/06/23 09:15:25;;;;;;;1999.90;999.90;;;30.80;99.90;;;;;;5052752;28;20187;-63
2022/06/23 09:18:32;;;;;;;1999.90;999.90;;;30.90;99.90;;;;;;5045394;28;20214;-63
2022/06/23 09:21:28;;;;;;;1999.90;999.90;;;30.60;99.90;;;;;;5052311;28;20188;-63
2022/06/23 09:24:10;;;;;;;1999.90;999.90;;;31.00;99.90;;;;;;5050187;28;20199;-64
2022/06/23 09:26:40;;;;;;;1999.90;999.90;;;31.10;99.90;;;;;;5052333;28;20180;-61
2022/06/23 09:29:19;;;;;;;1999.90;999.90;;;30.80;99.90;;;;;;5052342;28;20210;-61
2022/06/23 09:31:58;;;;;;;1999.90;999.90;;;30.80;99.90;;;;;;5052667;28;20180;-61
2022/06/23 09:34:45;;;;;;;1999.90;999.90;;;31.00;99.90;;;;;;5052469;28;20588;-59
2022/06/23 09:37:43;;;;;;;1999.90;999.90;;;31.10;99.90;;;;;;5052546;28;20180;-61
2022/06/23 09:40:28;;;;;;;1999.90;999.90;;;31.10;99.90;;;;;;5052503;28;20553;-62
2022/06/23 09:43:38;;;;;;;1999.90;999.90;;;31.30;99.90;;;;;;5052080;28;20184;-59
2022/06/23 09:46:27;;;;;;;1999.90;999.90;;;31.20;99.90;;;;;;5052376;28;20540;-60
2022/06/23 09:49:15;;;;;;;1999.90;999.90;;;31.00;99.90;;;;;;5052323;28;20207;-61
2022/06/23 09:52:09;;;;;;;1999.90;999.90;;;31.30;99.90;;;;;;5052296;28;20191;-60
2022/06/23 09:54:59;;;;;;;1999.90;999.90;;;31.30;99.90;;;;;;5051617;28;20191;-62
2022/06/23 09:57:53;;;;;;;1999.90;999.90;;;31.70;99.90;;;;;;5051976;28;20667;-61
2022/06/23 10:00:26;;;;;;;1999.90;999.90;;;31.70;99.90;;;;;;5052242;28;20172;-61
2022/06/23 10:03:01;;;;;;;1999.90;999.90;;;31.80;99.90;;;;;;5051820;28;20691;-61
2022/06/23 10:05:59;;;;;;;1999.90;999.90;;;32.30;99.90;;;;;;5051673;28;20239;-62
2022/06/23 10:08:42;;;;;;;1999.90;999.90;;;32.30;99.90;;;;;;5052080;28;20207;-61
2022/06/23 10:11:45;;;;;;;1999.90;999.90;;;30.90;99.90;;;;;;5051803;28;20763;-62
2022/06/23 10:14:29;;;;;;;1999.90;999.90;;;31.70;99.90;;;;;;5052057;28;20192;-62
2022/06/23 10:17:20;;;;;;;1999.90;999.90;;;32.00;99.90;;;;;;5052123;28;20179;-62
2022/06/23 10:20:09;;;;;;;1999.90;999.90;;;32.00;99.90;;;;;;5052091;28;20533;-62
2022/06/23 10:22:56;;;;;;;1999.90;999.90;;;32.20;99.90;;;;;;5051991;28;20188;-62
2022/06/23 10:25:52;;;;;;;1999.90;999.90;;;32.60;78.50;;;;;;5051710;28;20546;-62
2022/06/23 10:28:44;;;;;;;1999.90;999.90;;;32.10;94.50;;;;;;5051855;28;20210;-62
2022/06/23 10:31:23;;;;;;;1999.90;999.90;;;32.00;96.10;;;;;;5052001;28;20191;-62
2022/06/23 10:34:20;;;;;;;1999.90;999.90;;;32.10;93.70;;;;;;5051737;28;20625;-61
2022/06/23 10:37:02;;;;;;;1999.90;999.90;;;32.10;93.10;;;;;;5051998;28;20191;-62
2022/06/23 10:39:50;;;;;;;1999.90;999.90;;;32.30;48.60;;;;;;5051839;28;20250;-62
2022/06/23 10:42:32;;;;;;;1999.90;999.90;;;32.10;56.20;;;;;;5051732;28;20188;-62
2022/06/23 10:45:16;;;;;;;1999.90;999.90;;;32.40;95.50;;;;;;5051787;28;20242;-63
2022/06/23 10:48:05;;;;;;;1999.90;999.90;;;32.00;98.60;;;;;;5051499;28;20653;-61
2022/06/23 10:50:41;;;;;;;1999.90;999.90;;;32.00;99.90;;;;;;5051731;28;20180;-61
2022/06/23 10:53:53;;;;;;;1999.90;999.90;;;32.50;93.40;;;;;;5051746;28;20198;-61
2022/06/23 10:56:37;;;;;;;1999.90;999.90;;;32.90;58.70;;;;;;5053111;28;20277;-62
2022/06/23 10:59:32;;;;;;;1999.90;999.90;;;32.70;62.80;;;;;;5055191;28;20645;-62
2022/06/23 11:02:23;;;;;;;1999.90;999.90;;;32.30;90.10;;;;;;5055422;28;20230;-62
2022/06/23 11:05:21;;;;;;;1999.90;999.90;;;32.50;80.90;;;;;;5053104;28;20637;-62
2022/06/23 11:08:06;;;;;;;1999.90;999.90;;;33.00;93.60;;;;;;5055334;28;20552;-63
2022/06/23 11:10:55;;;;;;;1999.90;999.90;;;33.10;34.60;;;;;;5055277;28;20191;-63
2022/06/23 11:13:31;;;;;;;1999.90;999.90;;;32.80;25.30;;;;;;5055128;28;20180;-64
2022/06/23 11:16:10;;;;;;;1999.90;999.90;;;32.80;31.10;;;;;;5055059;28;20207;-64
2022/06/23 11:18:57;;;;;;;1999.90;999.90;;;33.30;48.40;;;;;;5054981;28;20172;-63
2022/06/23 11:21:45;;;;;;;1999.90;999.90;;;32.60;25.20;;;;;;5055026;28;20188;-63
2022/06/23 11:24:21;;;;;;;1999.90;999.90;;;32.80;26.10;;;;;;5055051;28;20184;-64
2022/06/23 11:27:00;;;;;;;1999.90;999.90;;;33.20;31.50;;;;;;5054973;28;20192;-63
2022/06/23 11:29:43;;;;;;;1999.90;999.90;;;33.20;33.60;;;;;;5054861;28;20219;-63
2022/06/23 11:32:24;;;;;;;1999.90;999.90;;;32.50;20.80;;;;;;5054866;28;20536;-63
2022/06/23 11:35:07;;;;;;;1999.90;999.90;;;32.50;28.90;;;;;;5054778;28;20175;-63
2022/06/23 11:37:47;;;;;;;1999.90;999.90;;;32.90;10.20;;;;;;5054779;28;20202;-64
2022/06/23 11:40:38;;;;;;;1999.90;999.90;;;32.80;12.90;;;;;;5054736;28;20241;-65
2022/06/23 11:43:16;;;;;;;1999.90;999.90;;;33.00;8.20;;;;;;5049067;28;20215;-63
2022/06/23 11:45:54;;;;;;;1999.90;999.90;;;32.30;1.00;;;;;;5054552;28;20222;-63
2022/06/23 11:48:43;;;;;;;1999.90;999.90;;;32.70;10.20;;;;;;5054099;28;20203;-63
2022/06/23 11:51:24;;;;;;;1999.90;999.90;;;33.40;1.00;;;;;;5054076;28;20184;-63
2022/06/23 11:54:06;;;;;;;1999.90;999.90;;;32.80;1.00;;;;;;5054398;28;20200;-65
2022/06/23 11:56:49;;;;;;;1999.90;999.90;;;33.10;1.00;;;;;;5054349;28;20180;-65
2022/06/23 11:59:32;;;;;;;1999.90;999.90;;;33.30;1.00;;;;;;5054347;28;20530;-63
2022/06/23 12:01:59;;;;;;;1999.90;999.90;;;33.30;1.00;;;;;;5054364;28;20179;-63
2022/06/23 12:04:49;;;;;;;1999.90;999.90;;;33.50;1.00;;;;;;5054019;28;20212;-63
2022/06/23 12:07:34;;;;;;;1999.90;999.90;;;33.00;1.00;;;;;;5053918;28;20191;-64
2022/06/23 12:10:09;;;;;;;1999.90;999.90;;;33.30;1.00;;;;;;5053731;28;20212;-63
2022/06/23 12:12:36;;;;;;;1999.90;999.90;;;34.00;1.00;;;;;;5054095;28;20198;-65
2022/06/23 12:15:05;;;;;;;1999.90;999.90;;;33.60;1.00;;;;;;5054024;28;20199;-65
2022/06/23 12:17:36;;;;;;;1999.90;999.90;;;33.50;1.00;;;;;;5053990;28;20196;-64
2022/06/23 12:20:11;;;;;;;1999.90;999.90;;;33.30;1.00;;;;;;5053552;28;20275;-64
2022/06/23 12:22:42;;;;;;;1999.90;999.90;;;33.20;1.00;;;;;;5053887;28;20533;-65
2022/06/23 12:25:22;;;;;;;1999.90;999.90;;;33.50;1.00;;;;;;5053889;28;20235;-65
2022/06/23 12:27:56;;;;;;;1999.90;999.90;;;33.70;1.00;;;;;;5053778;28;20247;-64
2022/06/23 12:30:26;;;;;;;1999.90;999.90;;;34.00;1.00;;;;;;5052691;28;20266;-64
2022/06/23 12:32:58;;;;;;;1999.90;999.90;;;34.10;1.00;;;;;;5052140;28;20227;-64
2022/06/23 12:35:34;;;;;;;1999.90;999.90;;;34.30;1.00;;;;;;5052962;28;20253;-64
2022/06/23 12:38:06;;;;;;;1999.90;999.90;;;34.00;1.00;;;;;;5053304;28;20179;-65
2022/06/23 12:40:37;;;;;;;1999.90;999.90;;;34.20;1.00;;;;;;5053564;28;20223;-65
2022/06/23 12:43:11;;;;;;;1999.90;999.90;;;34.10;1.00;;;;;;5053498;28;20191;-65
2022/06/23 12:45:55;;;;;;;1999.90;999.90;;;33.80;1.00;;;;;;5052349;28;20183;-65
2022/06/23 12:48:37;;;;;;;1999.90;999.90;;;33.80;1.00;;;;;;5052220;28;20179;-65
2022/06/23 12:51:13;;;;;;;1999.90;999.90;;;33.60;1.00;;;;;;5052940;28;20188;-65
2022/06/23 12:54:11;;;;;;;1999.90;999.90;;;33.60;1.00;;;;;;5053294;28;20184;-66
2022/06/23 12:56:58;;;;;;;1999.90;999.90;;;33.90;1.00;;;;;;5053255;28;20187;-65